createdAt,value
2022-10-04T00:01:52.680Z,3.73
2022-10-04T00:04:25.954Z,4.13
2022-10-04T00:06:59.080Z,2.93
2022-10-04T00:09:38.100Z,3.70
2022-10-04T00:12:21.464Z,2.97
2022-10-04T00:14:50.799Z,3.70
2022-10-04T00:17:31.701Z,4.00
2022-10-04T00:20:03.288Z,3.50
2022-10-04T00:22:32.255Z,3.63
2022-10-04T00:25:18.482Z,3.60
2022-10-04T00:28:37.017Z,3.30
2022-10-04T00:31:25.534Z,3.80
2022-10-04T00:33:55.984Z,4.30
2022-10-04T00:37:05.012Z,3.60
2022-10-04T00:39:43.483Z,3.90
2022-10-04T00:42:42.373Z,3.30
2022-10-04T00:45:37.532Z,3.73
2022-10-04T00:48:33.342Z,3.43
2022-10-04T00:51:06.277Z,3.43
2022-10-04T00:54:08.039Z,3.40
2022-10-04T00:56:41.556Z,3.83
2022-10-04T00:59:32.988Z,3.83
2022-10-04T01:02:06.063Z,3.70
2022-10-04T01:04:46.375Z,3.57
2022-10-04T01:07:22.507Z,3.93
2022-10-04T01:09:55.338Z,4.40
2022-10-04T01:12:40.314Z,3.97
2022-10-04T01:15:14.022Z,3.40
2022-10-04T01:18:15.816Z,5.07
2022-10-04T01:20:56.098Z,3.60
2022-10-04T01:23:45.215Z,4.00
2022-10-04T01:26:38.564Z,4.60
2022-10-04T01:29:16.788Z,4.60
2022-10-04T01:31:48.919Z,3.50
2022-10-04T01:34:23.590Z,4.53
2022-10-04T01:36:59.573Z,3.77
2022-10-04T01:39:38.030Z,3.80
2022-10-04T01:42:10.087Z,3.70
2022-10-04T01:44:47.268Z,3.77
2022-10-04T01:47:19.627Z,3.70
2022-10-04T01:49:49.952Z,3.20
2022-10-04T01:52:23.289Z,4.63
2022-10-04T01:55:02.351Z,4.47
2022-10-04T01:57:37.633Z,3.80
2022-10-04T02:00:08.659Z,3.90
2022-10-04T02:02:44.667Z,3.87
2022-10-04T02:05:19.021Z,3.73
2022-10-04T02:07:51.598Z,3.97
2022-10-04T02:10:23.496Z,4.33
2022-10-04T02:12:55.623Z,3.93
2022-10-04T02:15:26.645Z,4.00
2022-10-04T02:17:57.478Z,3.20
2022-10-04T02:20:28.058Z,4.33
2022-10-04T02:23:05.444Z,3.53
2022-10-04T02:25:37.836Z,3.97
2022-10-04T02:28:06.489Z,4.10
2022-10-04T02:30:45.071Z,3.43
2022-10-04T02:33:12.846Z,3.67
2022-10-04T02:35:51.010Z,4.07
2022-10-04T02:38:26.099Z,3.13
2022-10-04T02:40:59.091Z,3.40
2022-10-04T02:43:48.060Z,4.10
2022-10-04T02:46:26.675Z,4.27
2022-10-04T02:48:59.129Z,3.20
2022-10-04T02:51:33.307Z,3.53
2022-10-04T02:54:10.424Z,3.40
2022-10-04T02:56:40.510Z,3.00
2022-10-04T02:59:13.900Z,3.50
2022-10-04T03:01:55.021Z,3.73
2022-10-04T03:04:27.866Z,3.20
2022-10-04T03:06:59.470Z,2.97
2022-10-04T03:09:35.274Z,3.80
2022-10-04T03:12:15.030Z,2.93
2022-10-04T03:14:44.184Z,3.70
2022-10-04T03:17:15.382Z,2.93
2022-10-04T03:19:43.558Z,2.97
2022-10-04T03:22:20.308Z,3.73
2022-10-04T03:24:51.531Z,3.10
2022-10-04T03:27:24.834Z,3.70
2022-10-04T03:29:56.922Z,3.40
2022-10-04T03:32:30.576Z,3.40
2022-10-04T03:35:01.199Z,4.37
2022-10-04T03:37:32.103Z,3.87
2022-10-04T03:40:10.663Z,3.67
2022-10-04T03:42:41.626Z,3.87
2022-10-04T03:45:18.576Z,3.60
2022-10-04T03:47:49.105Z,3.00
2022-10-04T03:50:26.526Z,3.93
2022-10-04T03:53:00.402Z,4.03
2022-10-04T03:55:34.951Z,3.20
2022-10-04T03:58:05.076Z,3.17
2022-10-04T04:00:35.991Z,3.50
2022-10-04T04:03:11.368Z,3.20
2022-10-04T04:05:46.423Z,3.70
2022-10-04T04:08:24.760Z,3.27
2022-10-04T04:10:56.374Z,3.50
2022-10-04T04:13:33.752Z,4.10
2022-10-04T04:16:05.837Z,3.60
2022-10-04T04:18:37.158Z,4.50
2022-10-04T04:21:15.954Z,3.13
2022-10-04T04:23:53.402Z,4.07
2022-10-04T04:26:29.162Z,4.30
2022-10-04T04:29:06.942Z,3.90
2022-10-04T04:31:38.881Z,4.17
2022-10-04T04:34:18.166Z,4.57
2022-10-04T04:36:49.065Z,3.73
2022-10-04T04:39:36.335Z,4.00
2022-10-04T04:42:13.479Z,3.83
2022-10-04T04:44:51.878Z,4.20
2022-10-04T04:47:32.838Z,3.53
2022-10-04T04:50:07.170Z,4.07
2022-10-04T04:52:36.953Z,4.43
2022-10-04T04:55:19.153Z,4.20
2022-10-04T04:57:48.137Z,4.00
2022-10-04T05:00:26.112Z,4.70
2022-10-04T05:02:58.749Z,4.63
2022-10-04T05:05:32.526Z,3.90
2022-10-04T05:08:15.017Z,4.33
2022-10-04T05:10:46.928Z,3.93
2022-10-04T05:13:26.437Z,3.83
2022-10-04T05:15:59.809Z,3.30
2022-10-04T05:18:31.829Z,4.23
2022-10-04T05:21:06.028Z,5.03
2022-10-04T05:23:35.506Z,4.67
2022-10-04T05:26:05.123Z,4.03
2022-10-04T05:28:34.563Z,4.40
2022-10-04T05:31:24.452Z,3.40
2022-10-04T05:33:57.092Z,5.17
2022-10-04T05:36:41.096Z,3.80
2022-10-04T05:39:16.119Z,4.10
2022-10-04T05:41:52.408Z,3.60
2022-10-04T05:44:27.484Z,4.10
2022-10-04T05:47:02.820Z,3.70
2022-10-04T05:49:34.803Z,3.83
2022-10-04T05:52:04.902Z,4.17
2022-10-04T05:54:37.778Z,3.47
2022-10-04T05:57:23.652Z,4.30
2022-10-04T06:00:13.553Z,2.63
2022-10-04T06:03:06.929Z,4.07
2022-10-04T06:05:51.750Z,3.70
2022-10-04T06:08:29.420Z,3.80
2022-10-04T06:11:06.730Z,4.07
2022-10-04T06:14:04.676Z,3.70
2022-10-04T06:16:49.332Z,4.20
2022-10-04T06:19:43.107Z,4.47
2022-10-04T06:22:18.976Z,4.23
2022-10-04T06:24:53.567Z,3.90
2022-10-04T06:27:29.613Z,3.50
2022-10-04T06:30:00.449Z,5.03
2022-10-04T06:33:16.513Z,4.83
2022-10-04T06:36:03.459Z,4.00
2022-10-04T06:39:17.896Z,4.30
2022-10-04T06:42:15.991Z,4.33
2022-10-04T06:44:58.179Z,4.10
2022-10-04T06:47:48.585Z,3.70
2022-10-04T06:50:27.180Z,3.20
2022-10-04T06:53:09.269Z,3.33
2022-10-04T06:56:07.158Z,4.17
2022-10-04T06:59:27.060Z,4.57
2022-10-04T07:01:59.382Z,2.83
2022-10-04T07:05:03.210Z,4.00
2022-10-04T07:07:35.416Z,3.37
2022-10-04T07:10:26.052Z,3.40
2022-10-04T07:13:14.365Z,4.03
2022-10-04T07:15:48.885Z,4.87
2022-10-04T07:18:23.077Z,3.70
2022-10-04T07:21:02.441Z,3.67
2022-10-04T07:23:38.392Z,3.03
2022-10-04T07:26:22.045Z,3.20
2022-10-04T07:29:08.650Z,3.77
2022-10-04T07:31:38.558Z,4.67
2022-10-04T07:34:12.425Z,4.20
2022-10-04T07:36:54.011Z,3.80
2022-10-04T07:39:31.459Z,3.90
2022-10-04T07:42:08.793Z,4.00
2022-10-04T07:44:40.277Z,4.20
2022-10-04T07:47:21.194Z,3.87
2022-10-04T07:49:55.954Z,3.80
2022-10-04T07:52:39.224Z,3.67
2022-10-04T07:55:21.385Z,4.20
2022-10-04T07:57:59.075Z,4.20
2022-10-04T08:00:33.171Z,4.10
2022-10-04T08:03:25.366Z,4.53
2022-10-04T08:06:01.143Z,4.07
2022-10-04T08:08:40.555Z,4.00
2022-10-04T08:11:32.560Z,3.30
2022-10-04T08:14:14.275Z,4.50
2022-10-04T08:16:56.221Z,4.77
2022-10-04T08:19:45.444Z,3.80
2022-10-04T08:22:28.430Z,3.50
2022-10-04T08:25:06.723Z,4.73
2022-10-04T08:28:12.571Z,4.17
2022-10-04T08:30:56.663Z,4.13
2022-10-04T08:33:45.942Z,4.07
2022-10-04T08:36:27.733Z,4.37
2022-10-04T08:39:02.459Z,4.13
2022-10-04T08:42:09.279Z,3.70
2022-10-04T08:45:25.358Z,4.43
2022-10-04T08:48:30.110Z,4.30
2022-10-04T08:51:20.067Z,7.43
2022-10-04T08:54:18.098Z,5.03
2022-10-04T08:57:24.972Z,4.20
2022-10-04T09:00:13.676Z,4.10
2022-10-04T09:03:25.005Z,3.50
2022-10-04T09:06:06.864Z,3.93
2022-10-04T09:09:05.699Z,4.07
2022-10-04T09:12:20.040Z,3.40
2022-10-04T09:15:12.446Z,3.90
2022-10-04T09:17:50.897Z,3.00
2022-10-04T09:20:41.090Z,3.97
2022-10-04T09:23:31.716Z,3.43
2022-10-04T09:26:16.120Z,4.00
2022-10-04T09:29:24.375Z,3.60
2022-10-04T09:32:31.098Z,3.63
2022-10-04T09:35:11.671Z,3.77
2022-10-04T09:37:50.978Z,3.30
2022-10-04T09:41:03.749Z,3.53
2022-10-04T09:44:14.117Z,3.10
2022-10-04T09:46:56.951Z,3.47
2022-10-04T09:49:45.587Z,3.00
2022-10-04T09:52:39.944Z,2.70
2022-10-04T09:55:36.211Z,2.93
2022-10-04T10:01:20.235Z,3.30
2022-10-04T10:04:05.255Z,3.00
2022-10-04T10:07:05.611Z,3.00
2022-10-04T10:09:59.681Z,3.07
2022-10-04T10:13:16.239Z,3.60
2022-10-04T10:15:59.878Z,2.73
2022-10-04T10:18:42.904Z,2.90
2022-10-04T10:21:32.769Z,3.23
2022-10-04T10:24:34.566Z,2.77
2022-10-04T10:27:27.524Z,3.27
2022-10-04T10:30:18.480Z,2.60
2022-10-04T10:33:11.647Z,3.67
2022-10-04T10:35:58.561Z,3.63
2022-10-04T10:39:10.371Z,3.13
2022-10-04T10:42:07.946Z,3.80
2022-10-04T10:45:02.955Z,3.30
2022-10-04T10:47:42.157Z,2.87
2022-10-04T10:50:28.404Z,2.97
2022-10-04T10:53:58.348Z,2.93
2022-10-04T10:56:37.832Z,3.13
2022-10-04T10:59:42.198Z,3.40
2022-10-04T11:02:50.935Z,2.70
2022-10-04T11:06:06.455Z,2.27
2022-10-04T11:09:01.707Z,2.80
2022-10-04T11:11:59.185Z,2.80
2022-10-04T11:15:01.101Z,3.20
2022-10-04T11:18:02.572Z,3.10
2022-10-04T11:21:07.762Z,2.80
2022-10-04T11:24:02.558Z,3.50
2022-10-04T11:27:07.969Z,2.50
2022-10-04T11:30:05.801Z,3.00
2022-10-04T11:36:17.371Z,2.70
2022-10-04T11:39:30.215Z,2.77
2022-10-04T11:42:18.930Z,2.37
2022-10-04T11:45:21.335Z,2.80
2022-10-04T11:48:04.932Z,2.30
2022-10-04T11:51:11.677Z,2.27
2022-10-04T11:54:11.950Z,2.70
2022-10-04T11:57:18.790Z,2.53
2022-10-04T12:00:01.664Z,3.03
2022-10-04T12:03:10.853Z,2.40
2022-10-04T12:06:04.816Z,2.90
2022-10-04T12:08:49.094Z,2.97
2022-10-04T12:12:13.696Z,2.43
2022-10-04T12:15:12.970Z,2.87
2022-10-04T12:18:24.770Z,2.60
2022-10-04T12:21:29.215Z,2.63
2022-10-04T12:24:16.211Z,2.70
2022-10-04T12:27:12.423Z,2.40
2022-10-04T12:30:11.744Z,2.33
2022-10-04T12:32:57.552Z,2.70
2022-10-04T12:35:35.994Z,2.43
2022-10-04T12:38:33.307Z,2.50
2022-10-04T12:41:13.894Z,2.30
2022-10-04T12:43:50.047Z,2.20
2022-10-04T12:46:32.584Z,2.40
2022-10-04T12:49:16.386Z,1.80
2022-10-04T12:51:54.643Z,2.63
2022-10-04T12:54:35.830Z,2.27
2022-10-04T12:57:41.366Z,2.20
2022-10-04T13:00:18.213Z,2.03
2022-10-04T13:03:09.548Z,1.93
2022-10-04T13:05:45.241Z,2.00
2022-10-04T13:08:28.167Z,2.10
2022-10-04T13:11:11.348Z,1.77
2022-10-04T13:14:06.112Z,1.40
2022-10-04T13:19:46.062Z,2.00
2022-10-04T13:22:54.777Z,1.57
2022-10-04T13:25:33.636Z,2.23
2022-10-04T13:28:07.521Z,1.93
2022-10-04T13:30:48.979Z,1.70
2022-10-04T13:33:26.440Z,1.60
2022-10-04T13:36:08.734Z,1.60
2022-10-04T13:38:55.553Z,1.40
2022-10-04T13:41:37.467Z,1.50
2022-10-04T13:44:41.496Z,1.70
2022-10-04T13:47:35.287Z,1.50
2022-10-04T13:50:28.309Z,1.97
2022-10-04T13:53:30.887Z,1.80
2022-10-04T13:56:35.917Z,1.50
2022-10-04T13:59:18.129Z,1.53
2022-10-04T14:02:22.188Z,1.70
2022-10-04T14:05:18.901Z,1.50
2022-10-04T14:08:09.650Z,1.87
2022-10-04T14:10:58.901Z,1.90
2022-10-04T14:14:10.575Z,2.10
2022-10-04T14:17:14.812Z,1.93
2022-10-04T14:20:14.742Z,2.60
2022-10-04T14:23:22.247Z,2.00
2022-10-04T14:26:15.422Z,2.73
2022-10-04T14:29:37.020Z,2.13
2022-10-04T14:32:32.013Z,1.80
2022-10-04T14:35:04.196Z,1.97
2022-10-04T14:38:06.602Z,2.10
2022-10-04T14:41:07.563Z,1.87
2022-10-04T14:44:06.444Z,2.53
2022-10-04T14:46:51.961Z,2.20
2022-10-04T14:49:29.929Z,2.07
2022-10-04T14:52:14.730Z,2.47
2022-10-04T14:54:52.334Z,2.17
2022-10-04T14:57:38.165Z,5.47
2022-10-04T15:00:23.580Z,5.50
2022-10-04T15:03:13.722Z,2.77
2022-10-04T15:06:06.658Z,2.47
2022-10-04T15:08:57.459Z,1.73
2022-10-04T15:11:40.536Z,2.33
2022-10-04T15:14:28.225Z,2.13
2022-10-04T15:17:00.181Z,2.30
2022-10-04T15:19:32.032Z,1.80
2022-10-04T15:22:07.007Z,1.70
2022-10-04T15:24:47.804Z,2.30
2022-10-04T15:27:43.329Z,1.80
2022-10-04T15:30:40.001Z,2.47
2022-10-04T15:33:33.498Z,3.00
2022-10-04T15:36:37.923Z,2.20
2022-10-04T15:39:23.863Z,1.77
2022-10-04T15:41:59.231Z,2.33
2022-10-04T15:45:01.146Z,3.03
2022-10-04T15:47:35.701Z,2.30
2022-10-04T15:50:25.042Z,2.57
2022-10-04T15:53:20.238Z,2.37
2022-10-04T15:56:09.775Z,2.23
2022-10-04T15:58:58.866Z,2.27
2022-10-04T16:01:56.452Z,2.30
2022-10-04T16:04:41.807Z,2.60
2022-10-04T16:07:42.621Z,2.63
2022-10-04T16:10:20.467Z,2.67
2022-10-04T16:13:19.764Z,2.60
2022-10-04T16:15:51.141Z,3.70
2022-10-04T16:18:40.391Z,3.63
2022-10-04T16:21:17.875Z,3.83
2022-10-04T16:23:48.065Z,3.50
2022-10-04T16:26:56.832Z,3.30
2022-10-04T16:29:35.062Z,3.57
2022-10-04T16:32:13.743Z,3.37
2022-10-04T16:34:49.892Z,2.47
2022-10-04T16:37:32.419Z,2.17
2022-10-04T16:40:26.070Z,3.40
2022-10-04T16:43:01.278Z,2.63
2022-10-04T16:45:42.275Z,2.80
2022-10-04T16:48:28.851Z,3.47
2022-10-04T16:51:40.446Z,3.40
2022-10-04T16:54:28.743Z,3.10
2022-10-04T16:57:30.977Z,3.03
2022-10-04T17:00:05.099Z,2.97
2022-10-04T17:02:52.915Z,3.50
2022-10-04T17:05:33.336Z,3.00
2022-10-04T17:08:34.048Z,2.73
2022-10-04T17:11:38.890Z,3.70
2022-10-04T17:14:33.590Z,3.57
2022-10-04T17:17:12.342Z,3.10
2022-10-04T17:19:51.684Z,3.17
2022-10-04T17:22:35.784Z,3.20
2022-10-04T17:25:19.508Z,3.50
2022-10-04T17:27:57.141Z,3.83
2022-10-04T17:30:33.929Z,4.00
2022-10-04T17:33:33.083Z,5.00
2022-10-04T17:36:40.054Z,4.37
2022-10-04T17:39:44.314Z,4.50
2022-10-04T17:42:23.680Z,4.13
2022-10-04T17:45:36.563Z,4.20
2022-10-04T17:51:47.894Z,5.00
2022-10-04T17:54:37.638Z,4.53
2022-10-04T17:57:22.574Z,4.53
2022-10-04T17:59:55.256Z,4.73
2022-10-04T18:02:31.430Z,4.70
2022-10-04T18:05:10.970Z,5.20
2022-10-04T18:07:42.697Z,4.77
2022-10-04T18:10:35.133Z,4.67
2022-10-04T18:13:15.138Z,4.20
2022-10-04T18:15:56.080Z,4.07
2022-10-04T18:18:28.472Z,4.47
2022-10-04T18:21:07.181Z,4.00
2022-10-04T18:23:39.402Z,4.87
2022-10-04T18:26:12.841Z,4.13
2022-10-04T18:28:40.972Z,4.43
2022-10-04T18:31:24.194Z,3.87
2022-10-04T18:34:01.475Z,4.20
2022-10-04T18:36:47.239Z,5.17
2022-10-04T18:39:21.000Z,4.57
2022-10-04T18:41:59.609Z,5.17
2022-10-04T18:44:30.567Z,5.57
2022-10-04T18:47:00.282Z,4.53
2022-10-04T18:49:33.261Z,4.17
2022-10-04T18:52:17.020Z,4.73
2022-10-04T18:54:52.186Z,4.33
2022-10-04T18:57:30.132Z,4.10
2022-10-04T19:00:26.989Z,4.20
2022-10-04T19:03:05.130Z,4.50
2022-10-04T19:05:41.623Z,3.90
2022-10-04T19:08:28.887Z,5.00
2022-10-04T19:11:05.057Z,4.60
2022-10-04T19:13:42.829Z,4.57
2022-10-04T19:16:18.505Z,5.10
2022-10-04T19:18:58.391Z,4.73
2022-10-04T19:21:41.679Z,4.40
2022-10-04T19:24:29.124Z,4.67
2022-10-04T19:27:06.279Z,4.97
2022-10-04T19:29:54.420Z,4.70
2022-10-04T19:32:36.323Z,5.97
2022-10-04T19:35:18.147Z,5.40
2022-10-04T19:37:58.257Z,5.10
2022-10-04T19:40:35.461Z,4.93
2022-10-04T19:43:09.143Z,4.67
2022-10-04T19:45:47.972Z,4.80
2022-10-04T19:48:24.402Z,4.90
2022-10-04T19:50:56.663Z,4.47
2022-10-04T19:53:32.459Z,4.60
2022-10-04T19:56:05.847Z,4.63
2022-10-04T19:58:39.283Z,4.50
2022-10-04T20:04:09.185Z,4.27
2022-10-04T20:06:38.219Z,5.30
2022-10-04T20:09:25.803Z,4.83
2022-10-04T20:11:55.225Z,3.83
2022-10-04T20:15:15.164Z,4.17
2022-10-04T20:17:43.963Z,4.97
2022-10-04T20:20:15.448Z,3.97
2022-10-04T20:22:58.025Z,5.00
2022-10-04T20:26:03.820Z,3.83
2022-10-04T20:28:53.815Z,3.70
2022-10-04T20:31:53.950Z,4.33
2022-10-04T20:34:35.196Z,4.20
2022-10-04T20:37:04.127Z,4.30
2022-10-04T20:39:58.971Z,4.47
2022-10-04T20:42:33.722Z,4.13
2022-10-04T20:45:22.927Z,4.47
2022-10-04T20:47:54.559Z,4.30
2022-10-04T20:50:32.264Z,3.80
2022-10-04T20:53:04.317Z,3.30
2022-10-04T20:55:40.442Z,3.80
2022-10-04T20:58:27.206Z,4.13
2022-10-04T21:01:00.670Z,3.70
2022-10-04T21:03:28.462Z,4.20
2022-10-04T21:06:06.194Z,3.90
2022-10-04T21:08:34.319Z,5.40
2022-10-04T21:11:23.635Z,3.93
2022-10-04T21:14:02.204Z,3.77
2022-10-04T21:16:52.334Z,4.00
2022-10-04T21:22:35.205Z,3.60
2022-10-04T21:25:09.823Z,3.37
2022-10-04T21:27:39.868Z,3.60
2022-10-04T21:30:16.103Z,3.80
2022-10-04T21:32:45.269Z,3.80
2022-10-04T21:35:16.519Z,3.80
2022-10-04T21:37:47.081Z,3.90
2022-10-04T21:40:17.221Z,4.20
2022-10-04T21:42:45.024Z,3.93
2022-10-04T21:45:13.286Z,3.70
2022-10-04T21:47:41.512Z,3.73
2022-10-04T21:50:15.982Z,3.93
2022-10-04T21:52:43.745Z,3.83
2022-10-04T21:55:11.523Z,3.90
2022-10-04T21:57:39.723Z,3.63
2022-10-04T22:00:11.119Z,4.40
2022-10-04T22:02:39.514Z,4.20
2022-10-04T22:05:12.497Z,4.57
2022-10-04T22:07:42.134Z,4.10
2022-10-04T22:10:17.333Z,3.63
2022-10-04T22:12:47.624Z,4.17
2022-10-04T22:15:18.333Z,3.33
2022-10-04T22:17:46.158Z,3.80
2022-10-04T22:20:14.370Z,4.67
2022-10-04T22:22:43.958Z,3.63
2022-10-04T22:25:15.974Z,4.50
2022-10-04T22:27:51.838Z,4.17
2022-10-04T22:30:25.424Z,4.40
2022-10-04T22:32:56.253Z,4.60
2022-10-04T22:35:26.952Z,4.40
2022-10-04T22:37:58.739Z,4.20
2022-10-04T22:40:28.495Z,3.60
2022-10-04T22:42:58.968Z,4.40
2022-10-04T22:45:30.747Z,4.80
2022-10-04T22:48:01.330Z,3.97
2022-10-04T22:50:35.309Z,4.53
2022-10-04T22:53:12.690Z,4.60
2022-10-04T22:55:41.343Z,4.73
2022-10-04T22:58:12.804Z,4.33
2022-10-04T23:00:41.382Z,4.17
2022-10-04T23:03:25.213Z,4.30
2022-10-04T23:05:58.353Z,4.03
2022-10-04T23:08:28.055Z,5.00
2022-10-04T23:10:59.171Z,3.97
2022-10-04T23:13:29.832Z,4.40
2022-10-04T23:16:07.840Z,4.97
2022-10-04T23:18:36.173Z,4.80
2022-10-04T23:21:06.691Z,4.63
2022-10-04T23:23:35.944Z,5.10
2022-10-04T23:26:03.775Z,3.60
2022-10-04T23:28:31.635Z,4.77
2022-10-04T23:31:08.346Z,4.73
2022-10-04T23:33:36.603Z,4.17
2022-10-04T23:36:06.941Z,4.17
2022-10-04T23:38:48.243Z,4.33
2022-10-04T23:41:17.592Z,4.63
2022-10-04T23:44:00.304Z,4.80
2022-10-04T23:46:31.559Z,4.37
2022-10-04T23:48:59.426Z,4.50
2022-10-04T23:54:18.003Z,4.23
2022-10-04T23:56:47.560Z,5.47
2022-10-04T23:59:19.028Z,4.30
